sensor_id;sensor_type;location;lat;lon;timestamp;pressure;altitude;pressure_sealevel;temperature;humidity
40384;BME280;26097;42.366;23.818;2023-09-08T00:01:09;94656.63;;;17.26;100.00
40384;BME280;26097;42.366;23.818;2023-09-08T00:04:08;94659.84;;;17.20;100.00
40384;BME280;26097;42.366;23.818;2023-09-08T00:07:07;94655.97;;;17.14;100.00
40384;BME280;26097;42.366;23.818;2023-09-08T00:10:07;94661.78;;;17.08;100.00
40384;BME280;26097;42.366;23.818;2023-09-08T00:13:06;94653.50;;;17.03;100.00
40384;BME280;26097;42.366;23.818;2023-09-08T00:16:06;94652.13;;;16.98;100.00
40384;BME280;26097;42.366;23.818;2023-09-08T00:19:06;94654.84;;;16.97;100.00
40384;BME280;26097;42.366;23.818;2023-09-08T00:22:06;94656.53;;;16.88;100.00
40384;BME280;26097;42.366;23.818;2023-09-08T00:25:06;94651.84;;;16.82;100.00
40384;BME280;26097;42.366;23.818;2023-09-08T00:28:06;94654.34;;;16.83;100.00
40384;BME280;26097;42.366;23.818;2023-09-08T00:31:05;94653.50;;;16.83;100.00
40384;BME280;26097;42.366;23.818;2023-09-08T00:34:06;94643.53;;;16.77;100.00
40384;BME280;26097;42.366;23.818;2023-09-08T00:37:05;94645.78;;;16.72;100.00
40384;BME280;26097;42.366;23.818;2023-09-08T00:40:06;94651.84;;;16.72;100.00
40384;BME280;26097;42.366;23.818;2023-09-08T00:43:07;94647.69;;;16.69;100.00
40384;BME280;26097;42.366;23.818;2023-09-08T00:46:07;94644.53;;;16.66;100.00
40384;BME280;26097;42.366;23.818;2023-09-08T00:49:08;94639.38;;;16.64;100.00
40384;BME280;26097;42.366;23.818;2023-09-08T00:52:08;94630.25;;;16.59;100.00
40384;BME280;26097;42.366;23.818;2023-09-08T00:55:08;94633.16;;;16.55;100.00
40384;BME280;26097;42.366;23.818;2023-09-08T00:58:07;94616.00;;;16.51;100.00
40384;BME280;26097;42.366;23.818;2023-09-08T01:01:06;94616.41;;;16.47;100.00
40384;BME280;26097;42.366;23.818;2023-09-08T01:04:06;94607.53;;;16.48;100.00
40384;BME280;26097;42.366;23.818;2023-09-08T01:07:06;94607.53;;;16.48;100.00
40384;BME280;26097;42.366;23.818;2023-09-08T01:10:06;94602.28;;;16.48;100.00
40384;BME280;26097;42.366;23.818;2023-09-08T01:13:06;94605.59;;;16.50;100.00
40384;BME280;26097;42.366;23.818;2023-09-08T01:16:05;94607.28;;;16.51;100.00
40384;BME280;26097;42.366;23.818;2023-09-08T01:19:07;94601.06;;;16.52;100.00
40384;BME280;26097;42.366;23.818;2023-09-08T01:25:29;94592.31;;;16.41;100.00
40384;BME280;26097;42.366;23.818;2023-09-08T01:28:31;94584.03;;;16.36;100.00
40384;BME280;26097;42.366;23.818;2023-09-08T01:31:31;94586.25;;;16.31;100.00
40384;BME280;26097;42.366;23.818;2023-09-08T01:34:31;94581.25;;;16.28;100.00
40384;BME280;26097;42.366;23.818;2023-09-08T01:37:32;94586.78;;;16.25;100.00
40384;BME280;26097;42.366;23.818;2023-09-08T01:40:31;94577.53;;;16.21;100.00
40384;BME280;26097;42.366;23.818;2023-09-08T01:43:31;94585.13;;;16.04;100.00
40384;BME280;26097;42.366;23.818;2023-09-08T01:46:30;94581.25;;;15.89;100.00
40384;BME280;26097;42.366;23.818;2023-09-08T01:49:30;94578.03;;;15.75;100.00
40384;BME280;26097;42.366;23.818;2023-09-08T01:52:29;94577.72;;;15.59;100.00
40384;BME280;26097;42.366;23.818;2023-09-08T01:55:29;94571.34;;;15.51;100.00
40384;BME280;26097;42.366;23.818;2023-09-08T01:58:28;94567.03;;;15.40;100.00
40384;BME280;26097;42.366;23.818;2023-09-08T02:01:30;94565.19;;;15.21;100.00
40384;BME280;26097;42.366;23.818;2023-09-08T02:04:29;94571.94;;;15.14;100.00
40384;BME280;26097;42.366;23.818;2023-09-08T02:07:28;94565.81;;;15.04;100.00
40384;BME280;26097;42.366;23.818;2023-09-08T02:10:28;94563.03;;;14.95;100.00
40384;BME280;26097;42.366;23.818;2023-09-08T02:13:28;94566.03;;;14.91;100.00
40384;BME280;26097;42.366;23.818;2023-09-08T02:16:27;94569.31;;;14.83;100.00
40384;BME280;26097;42.366;23.818;2023-09-08T02:19:27;94565.16;;;14.80;100.00
40384;BME280;26097;42.366;23.818;2023-09-08T02:22:27;94566.78;;;14.71;100.00
40384;BME280;26097;42.366;23.818;2023-09-08T02:25:26;94569.50;;;14.70;100.00
40384;BME280;26097;42.366;23.818;2023-09-08T02:28:26;94562.72;;;14.67;100.00
40384;BME280;26097;42.366;23.818;2023-09-08T02:31:26;94554.69;;;14.59;100.00
40384;BME280;26097;42.366;23.818;2023-09-08T02:34:26;94554.47;;;14.51;100.00
40384;BME280;26097;42.366;23.818;2023-09-08T02:37:25;94559.53;;;14.42;100.00
40384;BME280;26097;42.366;23.818;2023-09-08T02:40:24;94557.56;;;14.35;100.00
40384;BME280;26097;42.366;23.818;2023-09-08T02:43:24;94555.25;;;14.41;100.00
40384;BME280;26097;42.366;23.818;2023-09-08T02:46:23;94547.66;;;14.38;100.00
40384;BME280;26097;42.366;23.818;2023-09-08T02:49:23;94550.41;;;14.16;100.00
40384;BME280;26097;42.366;23.818;2023-09-08T02:52:22;94544.00;;;14.08;100.00
40384;BME280;26097;42.366;23.818;2023-09-08T02:55:21;94534.22;;;13.89;100.00
40384;BME280;26097;42.366;23.818;2023-09-08T02:58:21;94532.22;;;13.81;100.00
40384;BME280;26097;42.366;23.818;2023-09-08T03:01:21;94540.09;;;13.70;100.00
40384;BME280;26097;42.366;23.818;2023-09-08T03:04:20;94539.19;;;13.60;100.00
40384;BME280;26097;42.366;23.818;2023-09-08T03:07:20;94541.84;;;13.48;100.00
40384;BME280;26097;42.366;23.818;2023-09-08T03:10:19;94537.31;;;13.39;100.00
40384;BME280;26097;42.366;23.818;2023-09-08T03:13:18;94537.78;;;13.33;100.00
40384;BME280;26097;42.366;23.818;2023-09-08T03:16:18;94538.03;;;13.29;100.00
40384;BME280;26097;42.366;23.818;2023-09-08T03:19:17;94536.84;;;13.34;100.00
40384;BME280;26097;42.366;23.818;2023-09-08T03:22:16;94539.47;;;13.34;100.00
40384;BME280;26097;42.366;23.818;2023-09-08T03:25:16;94538.50;;;13.35;100.00
40384;BME280;26097;42.366;23.818;2023-09-08T03:28:15;94536.13;;;13.32;100.00
40384;BME280;26097;42.366;23.818;2023-09-08T03:31:15;94538.41;;;13.25;100.00
40384;BME280;26097;42.366;23.818;2023-09-08T03:34:14;94532.47;;;13.23;100.00
40384;BME280;26097;42.366;23.818;2023-09-08T03:37:13;94535.47;;;13.18;100.00
40384;BME280;26097;42.366;23.818;2023-09-08T03:40:14;94544.38;;;13.16;100.00
40384;BME280;26097;42.366;23.818;2023-09-08T03:43:14;94549.16;;;13.10;100.00
40384;BME280;26097;42.366;23.818;2023-09-08T03:46:13;94543.81;;;13.00;100.00
40384;BME280;26097;42.366;23.818;2023-09-08T03:49:13;94545.22;;;12.93;100.00
40384;BME280;26097;42.366;23.818;2023-09-08T03:52:12;94544.88;;;12.86;100.00
40384;BME280;26097;42.366;23.818;2023-09-08T03:55:11;94547.63;;;12.85;100.00
40384;BME280;26097;42.366;23.818;2023-09-08T03:58:11;94535.84;;;12.79;100.00
40384;BME280;26097;42.366;23.818;2023-09-08T04:01:10;94546.78;;;12.73;100.00
40384;BME280;26097;42.366;23.818;2023-09-08T04:04:09;94542.38;;;12.62;100.00
40384;BME280;26097;42.366;23.818;2023-09-08T04:07:09;94544.16;;;12.62;100.00
40384;BME280;26097;42.366;23.818;2023-09-08T04:10:09;94544.28;;;12.60;100.00
40384;BME280;26097;42.366;23.818;2023-09-08T04:13:08;94549.75;;;12.68;100.00
40384;BME280;26097;42.366;23.818;2023-09-08T04:16:08;94550.81;;;12.66;100.00
40384;BME280;26097;42.366;23.818;2023-09-08T04:19:08;94550.59;;;12.69;100.00
40384;BME280;26097;42.366;23.818;2023-09-08T04:22:07;94550.69;;;12.67;100.00
40384;BME280;26097;42.366;23.818;2023-09-08T04:25:07;94556.88;;;12.66;100.00
40384;BME280;26097;42.366;23.818;2023-09-08T04:28:06;94564.72;;;12.66;100.00
40384;BME280;26097;42.366;23.818;2023-09-08T04:31:05;94572.22;;;12.71;100.00
40384;BME280;26097;42.366;23.818;2023-09-08T04:34:05;94567.38;;;12.78;100.00
40384;BME280;26097;42.366;23.818;2023-09-08T04:37:04;94564.25;;;12.84;100.00
40384;BME280;26097;42.366;23.818;2023-09-08T04:40:04;94576.16;;;12.88;100.00
40384;BME280;26097;42.366;23.818;2023-09-08T04:43:04;94580.91;;;12.94;100.00
40384;BME280;26097;42.366;23.818;2023-09-08T04:46:03;94580.56;;;13.10;100.00
40384;BME280;26097;42.366;23.818;2023-09-08T04:49:03;94583.75;;;13.25;100.00
40384;BME280;26097;42.366;23.818;2023-09-08T04:52:03;94582.78;;;13.38;100.00
40384;BME280;26097;42.366;23.818;2023-09-08T04:55:02;94576.59;;;13.50;100.00
40384;BME280;26097;42.366;23.818;2023-09-08T04:58:02;94583.59;;;13.61;100.00
40384;BME280;26097;42.366;23.818;2023-09-08T05:01:01;94582.97;;;13.80;100.00
40384;BME280;26097;42.366;23.818;2023-09-08T05:04:01;94578.69;;;14.00;100.00
40384;BME280;26097;42.366;23.818;2023-09-08T05:07:00;94581.88;;;14.16;100.00
40384;BME280;26097;42.366;23.818;2023-09-08T05:09:59;94586.53;;;14.33;100.00
40384;BME280;26097;42.366;23.818;2023-09-08T05:12:59;94591.34;;;14.49;100.00
40384;BME280;26097;42.366;23.818;2023-09-08T05:15:58;94590.88;;;14.65;100.00
40384;BME280;26097;42.366;23.818;2023-09-08T05:19:10;94594.44;;;14.76;100.00
40384;BME280;26097;42.366;23.818;2023-09-08T05:22:09;94591.72;;;14.87;100.00
40384;BME280;26097;42.366;23.818;2023-09-08T05:25:09;94587.34;;;14.97;100.00
40384;BME280;26097;42.366;23.818;2023-09-08T05:28:08;94588.09;;;15.09;100.00
40384;BME280;26097;42.366;23.818;2023-09-08T05:31:08;94595.75;;;15.22;100.00
40384;BME280;26097;42.366;23.818;2023-09-08T05:34:07;94591.88;;;15.26;100.00
40384;BME280;26097;42.366;23.818;2023-09-08T05:37:06;94593.28;;;15.40;100.00
40384;BME280;26097;42.366;23.818;2023-09-08T05:40:06;94597.19;;;15.46;100.00
40384;BME280;26097;42.366;23.818;2023-09-08T05:43:06;94601.50;;;15.57;100.00
40384;BME280;26097;42.366;23.818;2023-09-08T05:46:05;94605.81;;;15.68;100.00
40384;BME280;26097;42.366;23.818;2023-09-08T05:49:05;94604.75;;;15.80;100.00
40384;BME280;26097;42.366;23.818;2023-09-08T05:52:04;94600.50;;;15.89;100.00
40384;BME280;26097;42.366;23.818;2023-09-08T05:55:04;94604.78;;;16.00;100.00
40384;BME280;26097;42.366;23.818;2023-09-08T05:58:03;94612.81;;;16.08;100.00
40384;BME280;26097;42.366;23.818;2023-09-08T06:01:03;94600.34;;;16.20;100.00
40384;BME280;26097;42.366;23.818;2023-09-08T06:04:03;94604.50;;;16.33;100.00
40384;BME280;26097;42.366;23.818;2023-09-08T06:07:03;94612.28;;;16.34;100.00
40384;BME280;26097;42.366;23.818;2023-09-08T06:10:02;94613.78;;;16.47;100.00
40384;BME280;26097;42.366;23.818;2023-09-08T06:13:02;94606.44;;;16.60;100.00
40384;BME280;26097;42.366;23.818;2023-09-08T06:16:02;94613.34;;;16.71;100.00
40384;BME280;26097;42.366;23.818;2023-09-08T06:19:01;94611.25;;;16.75;100.00
40384;BME280;26097;42.366;23.818;2023-09-08T06:22:02;94609.44;;;16.85;100.00
40384;BME280;26097;42.366;23.818;2023-09-08T06:25:01;94622.56;;;17.05;100.00
40384;BME280;26097;42.366;23.818;2023-09-08T06:28:01;94626.78;;;17.25;100.00
40384;BME280;26097;42.366;23.818;2023-09-08T06:31:01;94624.50;;;17.50;100.00
40384;BME280;26097;42.366;23.818;2023-09-08T06:34:00;94628.53;;;17.73;100.00
40384;BME280;26097;42.366;23.818;2023-09-08T06:37:00;94632.56;;;17.95;100.00
40384;BME280;26097;42.366;23.818;2023-09-08T06:39:59;94628.53;;;18.19;100.00
40384;BME280;26097;42.366;23.818;2023-09-08T06:42:58;94630.41;;;18.45;100.00
40384;BME280;26097;42.366;23.818;2023-09-08T06:45:58;94639.09;;;18.55;100.00
40384;BME280;26097;42.366;23.818;2023-09-08T06:48:57;94632.88;;;18.64;100.00
40384;BME280;26097;42.366;23.818;2023-09-08T06:51:56;94643.28;;;18.84;100.00
40384;BME280;26097;42.366;23.818;2023-09-08T06:54:56;94648.69;;;19.01;100.00
40384;BME280;26097;42.366;23.818;2023-09-08T06:57:56;94647.66;;;19.46;100.00
40384;BME280;26097;42.366;23.818;2023-09-08T07:00:56;94646.78;;;19.72;100.00
40384;BME280;26097;42.366;23.818;2023-09-08T07:03:55;94649.88;;;19.67;100.00
40384;BME280;26097;42.366;23.818;2023-09-08T07:06:55;94649.00;;;19.50;100.00
40384;BME280;26097;42.366;23.818;2023-09-08T07:09:54;94649.00;;;19.50;100.00
40384;BME280;26097;42.366;23.818;2023-09-08T07:12:53;94651.00;;;19.57;100.00
40384;BME280;26097;42.366;23.818;2023-09-08T07:15:53;94653.97;;;19.53;100.00
40384;BME280;26097;42.366;23.818;2023-09-08T07:18:52;94656.03;;;19.68;100.00
40384;BME280;26097;42.366;23.818;2023-09-08T07:21:51;94654.50;;;20.00;100.00
40384;BME280;26097;42.366;23.818;2023-09-08T07:24:51;94650.56;;;20.12;100.00
40384;BME280;26097;42.366;23.818;2023-09-08T07:27:50;94649.78;;;20.53;100.00
40384;BME280;26097;42.366;23.818;2023-09-08T07:30:51;94649.84;;;20.87;100.00
40384;BME280;26097;42.366;23.818;2023-09-08T07:33:51;94654.13;;;20.79;100.00
40384;BME280;26097;42.366;23.818;2023-09-08T07:36:50;94642.03;;;20.68;100.00
40384;BME280;26097;42.366;23.818;2023-09-08T07:39:51;94651.94;;;20.58;100.00
40384;BME280;26097;42.366;23.818;2023-09-08T07:42:50;94664.75;;;20.96;100.00
40384;BME280;26097;42.366;23.818;2023-09-08T07:45:49;94660.25;;;20.96;100.00
40384;BME280;26097;42.366;23.818;2023-09-08T07:48:49;94659.28;;;20.89;100.00
40384;BME280;26097;42.366;23.818;2023-09-08T07:51:49;94657.94;;;21.02;100.00
40384;BME280;26097;42.366;23.818;2023-09-08T07:58:44;94665.50;;;21.46;100.00
40384;BME280;26097;42.366;23.818;2023-09-08T08:01:43;94659.16;;;21.64;100.00
40384;BME280;26097;42.366;23.818;2023-09-08T08:04:43;94655.69;;;21.47;100.00
40384;BME280;26097;42.366;23.818;2023-09-08T08:07:43;94666.66;;;21.52;100.00
40384;BME280;26097;42.366;23.818;2023-09-08T08:10:42;94658.00;;;21.50;100.00
40384;BME280;26097;42.366;23.818;2023-09-08T08:13:42;94661.13;;;21.70;100.00
40384;BME280;26097;42.366;23.818;2023-09-08T08:16:41;94659.22;;;21.95;100.00
40384;BME280;26097;42.366;23.818;2023-09-08T08:19:41;94658.22;;;22.28;100.00
40384;BME280;26097;42.366;23.818;2023-09-08T08:22:40;94657.38;;;21.96;100.00
40384;BME280;26097;42.366;23.818;2023-09-08T08:25:40;94653.13;;;21.78;100.00
40384;BME280;26097;42.366;23.818;2023-09-08T08:28:39;94654.03;;;22.02;100.00
40384;BME280;26097;42.366;23.818;2023-09-08T08:31:38;94661.50;;;22.30;100.00
40384;BME280;26097;42.366;23.818;2023-09-08T08:34:38;94654.06;;;22.57;98.74
40384;BME280;26097;42.366;23.818;2023-09-08T08:37:40;94650.59;;;22.25;98.06
40384;BME280;26097;42.366;23.818;2023-09-08T08:40:39;94649.16;;;21.74;90.69
40384;BME280;26097;42.366;23.818;2023-09-08T08:43:40;94632.19;;;21.92;93.59
40384;BME280;26097;42.366;23.818;2023-09-08T08:46:41;94634.69;;;22.72;91.21
40384;BME280;26097;42.366;23.818;2023-09-08T08:49:43;94640.63;;;22.97;83.55
40384;BME280;26097;42.366;23.818;2023-09-08T08:52:46;94636.59;;;23.01;80.86
40384;BME280;26097;42.366;23.818;2023-09-08T08:55:46;94645.53;;;22.85;81.55
40384;BME280;26097;42.366;23.818;2023-09-08T08:58:47;94647.97;;;22.48;81.31
40384;BME280;26097;42.366;23.818;2023-09-08T09:01:48;94644.88;;;22.36;83.28
40384;BME280;26097;42.366;23.818;2023-09-08T09:04:47;94630.50;;;22.77;82.53
40384;BME280;26097;42.366;23.818;2023-09-08T09:07:48;94641.66;;;23.11;79.66
40384;BME280;26097;42.366;23.818;2023-09-08T09:10:50;94636.63;;;23.16;76.28
40384;BME280;26097;42.366;23.818;2023-09-08T09:13:50;94644.59;;;23.16;71.05
40384;BME280;26097;42.366;23.818;2023-09-08T09:16:49;94636.84;;;23.45;72.97
40384;BME280;26097;42.366;23.818;2023-09-08T09:19:49;94635.63;;;23.77;68.24
40384;BME280;26097;42.366;23.818;2023-09-08T09:22:49;94638.97;;;23.49;68.19
40384;BME280;26097;42.366;23.818;2023-09-08T09:25:48;94639.16;;;23.63;70.85
40384;BME280;26097;42.366;23.818;2023-09-08T09:28:48;94637.78;;;23.67;70.94
40384;BME280;26097;42.366;23.818;2023-09-08T09:31:52;94632.53;;;23.89;68.55
40384;BME280;26097;42.366;23.818;2023-09-08T09:34:54;94636.94;;;23.81;65.22
40384;BME280;26097;42.366;23.818;2023-09-08T09:37:54;94642.91;;;23.38;63.12
40384;BME280;26097;42.366;23.818;2023-09-08T09:40:53;94632.00;;;23.48;67.18
40384;BME280;26097;42.366;23.818;2023-09-08T09:43:54;94634.75;;;23.70;67.52
40384;BME280;26097;42.366;23.818;2023-09-08T09:46:54;94628.38;;;23.86;64.54
40384;BME280;26097;42.366;23.818;2023-09-08T09:49:53;94627.56;;;23.86;63.16
40384;BME280;26097;42.366;23.818;2023-09-08T09:52:57;94629.69;;;24.05;62.98
40384;BME280;26097;42.366;23.818;2023-09-08T09:55:56;94621.97;;;24.32;62.23
40384;BME280;26097;42.366;23.818;2023-09-08T09:58:56;94612.78;;;24.57;64.28
40384;BME280;26097;42.366;23.818;2023-09-08T10:01:55;94611.63;;;24.66;63.96
40384;BME280;26097;42.366;23.818;2023-09-08T10:04:55;94603.78;;;24.79;63.06
40384;BME280;26097;42.366;23.818;2023-09-08T10:07:55;94596.69;;;24.87;61.58
40384;BME280;26097;42.366;23.818;2023-09-08T10:10:56;94601.38;;;25.13;62.70
40384;BME280;26097;42.366;23.818;2023-09-08T10:13:58;94602.13;;;24.78;63.79
40384;BME280;26097;42.366;23.818;2023-09-08T10:17:02;94592.63;;;24.47;63.37
40384;BME280;26097;42.366;23.818;2023-09-08T10:20:02;94586.63;;;24.23;64.39
40384;BME280;26097;42.366;23.818;2023-09-08T10:23:18;94581.00;;;24.33;57.64
40384;BME280;26097;42.366;23.818;2023-09-08T10:26:24;94582.38;;;24.94;60.01
40384;BME280;26097;42.366;23.818;2023-09-08T10:29:26;94586.34;;;25.05;57.89
40384;BME280;26097;42.366;23.818;2023-09-08T10:32:27;94582.63;;;25.35;57.23
40384;BME280;26097;42.366;23.818;2023-09-08T10:35:28;94584.38;;;25.21;58.60
40384;BME280;26097;42.366;23.818;2023-09-08T10:38:33;94586.03;;;25.22;55.89
40384;BME280;26097;42.366;23.818;2023-09-08T10:41:33;94587.28;;;25.19;57.49
40384;BME280;26097;42.366;23.818;2023-09-08T10:44:33;94583.66;;;24.55;56.51
40384;BME280;26097;42.366;23.818;2023-09-08T10:47:55;94577.59;;;24.39;57.17
40384;BME280;26097;42.366;23.818;2023-09-08T10:50:53;94573.78;;;24.49;58.68
40384;BME280;26097;42.366;23.818;2023-09-08T10:53:53;94570.22;;;24.63;58.48
40384;BME280;26097;42.366;23.818;2023-09-08T10:56:56;94569.03;;;24.94;56.26
40384;BME280;26097;42.366;23.818;2023-09-08T11:00:04;94578.13;;;25.35;56.29
40384;BME280;26097;42.366;23.818;2023-09-08T11:03:12;94579.41;;;25.11;57.24
40384;BME280;26097;42.366;23.818;2023-09-08T11:06:12;94566.03;;;24.54;58.68
40384;BME280;26097;42.366;23.818;2023-09-08T11:09:11;94557.78;;;24.49;59.49
40384;BME280;26097;42.366;23.818;2023-09-08T11:12:11;94556.66;;;24.58;59.54
40384;BME280;26097;42.366;23.818;2023-09-08T11:15:10;94557.28;;;24.82;58.10
40384;BME280;26097;42.366;23.818;2023-09-08T11:18:10;94569.69;;;24.53;57.94
40384;BME280;26097;42.366;23.818;2023-09-08T11:21:10;94562.59;;;24.82;56.18
40384;BME280;26097;42.366;23.818;2023-09-08T11:24:10;94550.47;;;25.43;56.09
40384;BME280;26097;42.366;23.818;2023-09-08T11:27:13;94555.66;;;25.51;56.04
40384;BME280;26097;42.366;23.818;2023-09-08T11:30:13;94552.03;;;25.66;54.32
40384;BME280;26097;42.366;23.818;2023-09-08T11:33:20;94541.69;;;25.49;53.12
40384;BME280;26097;42.366;23.818;2023-09-08T11:36:24;94546.56;;;25.88;54.61
40384;BME280;26097;42.366;23.818;2023-09-08T11:39:24;94534.06;;;26.08;52.99
40384;BME280;26097;42.366;23.818;2023-09-08T11:42:25;94544.28;;;25.85;53.91
40384;BME280;26097;42.366;23.818;2023-09-08T11:45:25;94532.16;;;25.75;54.19
40384;BME280;26097;42.366;23.818;2023-09-08T11:48:25;94523.38;;;26.08;54.20
40384;BME280;26097;42.366;23.818;2023-09-08T11:51:26;94524.66;;;25.50;54.78
40384;BME280;26097;42.366;23.818;2023-09-08T11:54:25;94522.88;;;25.71;53.93
40384;BME280;26097;42.366;23.818;2023-09-08T11:57:25;94526.44;;;25.43;55.95
40384;BME280;26097;42.366;23.818;2023-09-08T12:00:25;94520.88;;;25.45;55.67
40384;BME280;26097;42.366;23.818;2023-09-08T12:03:25;94518.06;;;25.11;57.28
40384;BME280;26097;42.366;23.818;2023-09-08T12:06:26;94521.78;;;25.17;54.62
40384;BME280;26097;42.366;23.818;2023-09-08T12:09:26;94519.78;;;25.61;53.82
40384;BME280;26097;42.366;23.818;2023-09-08T12:12:26;94514.47;;;25.74;55.66
40384;BME280;26097;42.366;23.818;2023-09-08T12:15:30;94512.69;;;25.04;55.28
40384;BME280;26097;42.366;23.818;2023-09-08T12:18:38;94522.28;;;25.27;55.44
40384;BME280;26097;42.366;23.818;2023-09-08T12:21:56;94513.09;;;25.01;56.63
40384;BME280;26097;42.366;23.818;2023-09-08T12:24:57;94509.47;;;25.51;55.13
40384;BME280;26097;42.366;23.818;2023-09-08T12:27:57;94507.09;;;25.34;55.33
40384;BME280;26097;42.366;23.818;2023-09-08T12:30:57;94500.56;;;25.92;54.74
40384;BME280;26097;42.366;23.818;2023-09-08T12:33:56;94492.69;;;25.22;55.92
40384;BME280;26097;42.366;23.818;2023-09-08T12:36:55;94491.84;;;24.29;59.17
40384;BME280;26097;42.366;23.818;2023-09-08T12:39:55;94492.88;;;24.06;60.23
40384;BME280;26097;42.366;23.818;2023-09-08T12:42:55;94491.88;;;24.86;56.48
40384;BME280;26097;42.366;23.818;2023-09-08T12:45:57;94485.84;;;25.55;55.43
40384;BME280;26097;42.366;23.818;2023-09-08T12:48:56;94484.09;;;25.75;54.67
40384;BME280;26097;42.366;23.818;2023-09-08T12:51:55;94481.50;;;26.16;53.97
40384;BME280;26097;42.366;23.818;2023-09-08T12:54:55;94485.59;;;26.12;55.13
40384;BME280;26097;42.366;23.818;2023-09-08T12:57:54;94498.13;;;25.42;57.07
40384;BME280;26097;42.366;23.818;2023-09-08T13:00:54;94491.34;;;26.08;55.01
40384;BME280;26097;42.366;23.818;2023-09-08T13:03:54;94486.56;;;25.35;56.59
40384;BME280;26097;42.366;23.818;2023-09-08T13:06:53;94491.53;;;25.38;55.19
40384;BME280;26097;42.366;23.818;2023-09-08T13:09:53;94490.06;;;25.77;54.14
40384;BME280;26097;42.366;23.818;2023-09-08T13:12:52;94473.88;;;25.99;55.12
40384;BME280;26097;42.366;23.818;2023-09-08T13:15:51;94476.94;;;25.96;52.99
40384;BME280;26097;42.366;23.818;2023-09-08T13:18:51;94481.13;;;26.46;53.64
40384;BME280;26097;42.366;23.818;2023-09-08T13:21:50;94479.47;;;26.58;53.58
40384;BME280;26097;42.366;23.818;2023-09-08T13:24:50;94482.28;;;25.96;53.76
40384;BME280;26097;42.366;23.818;2023-09-08T13:27:49;94477.53;;;24.87;55.60
40384;BME280;26097;42.366;23.818;2023-09-08T13:30:49;94480.72;;;24.47;58.37
40384;BME280;26097;42.366;23.818;2023-09-08T13:33:48;94484.03;;;24.56;57.82
40384;BME280;26097;42.366;23.818;2023-09-08T13:36:48;94474.56;;;24.47;60.08
40384;BME280;26097;42.366;23.818;2023-09-08T13:39:47;94473.59;;;24.26;60.55
40384;BME280;26097;42.366;23.818;2023-09-08T13:42:46;94474.31;;;24.42;60.96
40384;BME280;26097;42.366;23.818;2023-09-08T13:45:46;94478.41;;;25.43;57.08
40384;BME280;26097;42.366;23.818;2023-09-08T13:48:46;94467.44;;;25.80;56.00
40384;BME280;26097;42.366;23.818;2023-09-08T13:51:46;94470.59;;;25.97;53.76
40384;BME280;26097;42.366;23.818;2023-09-08T13:54:50;94465.63;;;25.94;54.88
40384;BME280;26097;42.366;23.818;2023-09-08T13:57:50;94463.50;;;25.62;55.88
40384;BME280;26097;42.366;23.818;2023-09-08T14:00:49;94468.78;;;26.18;54.85
40384;BME280;26097;42.366;23.818;2023-09-08T14:03:49;94469.81;;;26.30;53.21
40384;BME280;26097;42.366;23.818;2023-09-08T14:06:51;94459.31;;;26.56;52.66
40384;BME280;26097;42.366;23.818;2023-09-08T14:09:50;94470.19;;;26.67;53.21
40384;BME280;26097;42.366;23.818;2023-09-08T14:12:50;94467.53;;;26.74;49.43
40384;BME280;26097;42.366;23.818;2023-09-08T14:15:49;94458.69;;;26.74;51.32
40384;BME280;26097;42.366;23.818;2023-09-08T14:18:49;94456.06;;;26.27;52.50
40384;BME280;26097;42.366;23.818;2023-09-08T14:21:48;94463.56;;;25.83;51.13
40384;BME280;26097;42.366;23.818;2023-09-08T14:24:47;94462.19;;;26.27;52.73
40384;BME280;26097;42.366;23.818;2023-09-08T14:27:47;94452.00;;;25.55;52.53
40384;BME280;26097;42.366;23.818;2023-09-08T14:30:46;94454.31;;;24.81;58.83
40384;BME280;26097;42.366;23.818;2023-09-08T14:33:46;94454.19;;;24.96;57.64
40384;BME280;26097;42.366;23.818;2023-09-08T14:36:45;94452.22;;;25.67;56.80
40384;BME280;26097;42.366;23.818;2023-09-08T14:39:45;94457.13;;;25.50;54.85
40384;BME280;26097;42.366;23.818;2023-09-08T14:42:45;94453.78;;;25.41;59.21
40384;BME280;26097;42.366;23.818;2023-09-08T14:45:44;94449.00;;;24.81;59.66
40384;BME280;26097;42.366;23.818;2023-09-08T14:48:44;94452.66;;;24.51;61.06
40384;BME280;26097;42.366;23.818;2023-09-08T14:51:44;94451.41;;;24.76;58.26
40384;BME280;26097;42.366;23.818;2023-09-08T14:54:43;94450.94;;;25.01;58.36
40384;BME280;26097;42.366;23.818;2023-09-08T14:57:43;94451.25;;;24.84;59.56
40384;BME280;26097;42.366;23.818;2023-09-08T15:00:44;94438.56;;;24.86;56.86
40384;BME280;26097;42.366;23.818;2023-09-08T15:03:44;94441.78;;;25.17;57.08
40384;BME280;26097;42.366;23.818;2023-09-08T15:06:43;94435.63;;;25.16;58.04
40384;BME280;26097;42.366;23.818;2023-09-08T15:09:43;94439.66;;;24.99;62.99
40384;BME280;26097;42.366;23.818;2023-09-08T15:12:42;94435.56;;;25.03;62.49
40384;BME280;26097;42.366;23.818;2023-09-08T15:15:41;94431.75;;;24.77;62.27
40384;BME280;26097;42.366;23.818;2023-09-08T15:18:41;94432.38;;;24.50;61.39
40384;BME280;26097;42.366;23.818;2023-09-08T15:21:40;94435.44;;;24.19;64.01
40384;BME280;26097;42.366;23.818;2023-09-08T15:24:40;94439.44;;;24.08;68.13
40384;BME280;26097;42.366;23.818;2023-09-08T15:27:40;94432.09;;;23.95;68.80
40384;BME280;26097;42.366;23.818;2023-09-08T15:30:39;94430.78;;;23.62;71.95
40384;BME280;26097;42.366;23.818;2023-09-08T15:33:39;94418.31;;;23.41;73.67
40384;BME280;26097;42.366;23.818;2023-09-08T15:36:40;94419.97;;;23.12;76.04
40384;BME280;26097;42.366;23.818;2023-09-08T15:39:40;94417.81;;;22.86;78.50
40384;BME280;26097;42.366;23.818;2023-09-08T15:42:40;94416.91;;;22.63;78.90